Not for real navigation | The accuracy of this data is not assured | See disclaimer for more information
ICAO NAME COUNTRY WIND Kt GUST Kt VIS TEMP/DEW BARO
ENUN 47 0 9999 2/-1 29.56
ENUN 310720Z AUTO 30047KT 9999NDV -SHRA BKN014/// 02/M01 Q1001 WM18/S/
ENHE Heidrun Norway 46 0 9000 5/2 29.71
ENHE 310720Z 30046KT 9000 SCT018 BKN110 05/02 Q1006 W///S7
ENNE 42 0 9999 5/1 29.65
ENNE 310720Z 30042KT 9999 VCSH SCT012 BKN022 05/01 Q1004 W///S7
PALU Cape Lisburne, Cape Lisburne L AK United States 35 52 16000 -5/-18 29.79
PALU 310655Z AUTO 18035G52KT 10SM BKN240 M05/M18 A2979 RMK AO2 SLP088 T10511184
CWEK Grey Islet Meteorological Aero Canada 33 41 9999 3/-4 29.92
CWEK 310700Z AUTO 05033G41KT 03/M04 RMK AO1 PK WND 05041/0620 SLP086 T00341035 53029

Show more

Close Menu